Time;durP1;ratioP1;P1;durP2;ratioP2;P2;SDS_P1;SDS_P2;PMS_P1;PMS_P2;Temp;Humidity;BMP_temperature;BMP_pressure;BME280_temperature;BME280_humidity;BME280_pressure;Samples;Min_cycle;Max_cycle;Signal;HPM_P1;HPM_P2
2020/12/25 05:46:12;;;;;;;6.60;3.38;;;;;;;;;;6276909;22;884301;-80
2020/12/25 05:48:38;;;;;;;5.35;2.88;;;;;;;;;;6325155;22;20007;-80
2020/12/25 05:51:08;;;;;;;7.03;3.15;;;;;;;;;;6290759;22;20406;-80
2020/12/25 05:53:34;;;;;;;5.93;3.28;;;;;;;;;;6317320;22;19999;-80
2020/12/25 05:56:01;;;;;;;5.15;3.08;;;;;;;;;;6307244;22;20000;-80
2020/12/25 05:58:28;;;;;;;6.68;3.38;;;;;;;;;;6286407;22;20003;-79
2020/12/25 06:00:54;;;;;;;8.95;3.63;;;;;;;;;;6282993;22;19999;-80
2020/12/25 06:03:21;;;;;;;8.77;3.83;;;;;;;;;;6284192;22;20006;-80
2020/12/25 06:05:47;;;;;;;5.50;3.33;;;;;;;;;;6286578;22;20027;-80
2020/12/25 06:08:29;;;;;;;6.50;3.10;;;;;;;;;;6287058;22;20004;-80
2020/12/25 06:11:01;;;;;;;8.02;3.65;;;;;;;;;;6286896;22;20422;-80
2020/12/25 06:13:35;;;;;;;6.15;3.80;;;;;;;;;;6286701;22;20011;-81
2020/12/25 06:18:20;;;;;;;7.18;3.13;;;;;;;;;;5117225;27;20347;-82
2020/12/25 06:20:52;;;;;;;9.70;4.43;;;;;;;;;;5096420;28;20031;-82
2020/12/25 06:23:21;;;;;;;7.45;3.78;;;;;;;;;;5104535;28;20074;-82
2020/12/25 06:25:50;;;;;;;7.03;3.72;;;;;;;;;;5121188;28;20024;-82
2020/12/25 06:28:18;;;;;;;6.63;3.17;;;;;;;;;;5111209;28;20025;-80
2020/12/25 06:30:44;;;;;;;7.82;3.65;;;;;;;;;;5107503;28;20086;-80
2020/12/25 06:33:10;;;;;;;7.80;3.80;;;;;;;;;;5108827;28;20431;-80
2020/12/25 06:35:38;;;;;;;8.70;4.03;;;;;;;;;;5105671;28;20028;-80
2020/12/25 06:38:13;;;;;;;9.93;4.53;;;;;;;;;;5109865;28;20031;-81
2020/12/25 06:40:39;;;;;;;7.38;4.28;;;;;;;;;;5103315;28;20077;-81
2020/12/25 06:43:18;;;;;;;6.28;3.67;;;;;;;;;;5114239;28;20027;-80
2020/12/25 06:45:45;;;;;;;6.90;3.67;;;;;;;;;;5107388;28;20029;-81
2020/12/25 06:48:12;;;;;;;6.28;3.10;;;;;;;;;;5109155;28;20025;-80
2020/12/25 06:50:57;;;;;;;6.57;4.10;;;;;;;;;;5107282;28;20031;-80
2020/12/25 06:53:42;;;;;;;6.38;4.03;;;;;;;;;;5101257;28;20032;-80
2020/12/25 06:56:09;;;;;;;5.40;3.10;;;;;;;;;;5092942;28;20028;-80
2020/12/25 06:58:43;;;;;;;6.93;3.30;;;;;;;;;;5103463;28;20020;-80
2020/12/25 07:03:27;;;;;;;6.03;3.08;;;;;;;;;;5090986;28;20397;-82
2020/12/25 07:05:54;;;;;;;6.28;3.97;;;;;;;;;;5082002;28;20055;-82
2020/12/25 07:10:40;;;;;;;7.70;3.92;;;;;;;;;;5099284;27;20378;-82
2020/12/25 07:13:06;;;;;;;6.32;3.60;;;;;;;;;;5096697;28;20020;-81
2020/12/25 07:15:32;;;;;;;7.43;3.83;;;;;;;;;;5095829;28;20038;-82
2020/12/25 07:17:58;;;;;;;6.70;3.38;;;;;;;;;;5096672;28;20103;-81
2020/12/25 07:20:24;;;;;;;8.90;3.58;;;;;;;;;;5095220;28;20017;-81
2020/12/25 07:22:50;;;;;;;12.85;3.70;;;;;;;;;;5110896;28;20380;-80
2020/12/25 07:25:16;;;;;;;8.85;4.10;;;;;;;;;;5103436;28;20030;-81
2020/12/25 07:27:42;;;;;;;8.70;4.35;;;;;;;;;;5095068;28;20141;-82
2020/12/25 07:30:08;;;;;;;6.82;3.60;;;;;;;;;;5086208;28;20028;-82
2020/12/25 07:32:34;;;;;;;6.85;3.67;;;;;;;;;;5090652;28;20033;-82
2020/12/25 07:35:06;;;;;;;8.13;4.32;;;;;;;;;;5088486;28;20039;-82
2020/12/25 07:37:32;;;;;;;10.52;3.97;;;;;;;;;;5088624;28;20028;-82
2020/12/25 07:39:58;;;;;;;9.05;4.47;;;;;;;;;;5091899;28;20028;-82
2020/12/25 07:42:24;;;;;;;7.70;4.00;;;;;;;;;;5092039;28;20017;-82
2020/12/25 07:47:09;;;;;;;7.47;3.92;;;;;;;;;;5082763;28;20438;-82
2020/12/25 07:49:35;;;;;;;7.93;3.75;;;;;;;;;;5064766;28;20025;-82
2020/12/25 07:52:01;;;;;;;7.63;4.13;;;;;;;;;;5068319;28;20086;-83
2020/12/25 07:54:28;;;;;;;5.57;3.45;;;;;;;;;;5053996;28;20025;-83
2020/12/25 07:56:54;;;;;;;8.00;3.65;;;;;;;;;;5066195;28;20095;-83
2020/12/25 08:01:38;;;;;;;9.18;4.97;;;;;;;;;;5059675;28;20798;-83
2020/12/25 08:04:05;;;;;;;7.75;4.13;;;;;;;;;;5064376;28;20626;-83
2020/12/25 08:06:32;;;;;;;7.93;3.83;;;;;;;;;;5057156;28;20267;-83
2020/12/25 08:09:17;;;;;;;6.15;3.72;;;;;;;;;;5057356;28;20104;-81
2020/12/25 08:11:43;;;;;;;8.82;4.22;;;;;;;;;;5044520;28;20094;-81
2020/12/25 08:14:10;;;;;;;13.23;4.82;;;;;;;;;;5058999;28;20464;-81
2020/12/25 08:16:54;;;;;;;6.22;3.95;;;;;;;;;;5054961;28;20367;-81
2020/12/25 08:19:20;;;;;;;8.40;4.03;;;;;;;;;;5055516;28;20031;-82
2020/12/25 08:21:46;;;;;;;7.38;3.85;;;;;;;;;;5060185;28;20025;-82
2020/12/25 08:24:12;;;;;;;7.72;4.38;;;;;;;;;;5057464;28;20370;-82
2020/12/25 08:26:39;;;;;;;7.93;4.70;;;;;;;;;;5064902;28;20032;-83
2020/12/25 08:29:05;;;;;;;5.85;3.67;;;;;;;;;;5057883;28;20041;-82
2020/12/25 08:31:35;;;;;;;7.78;4.70;;;;;;;;;;5051214;28;20083;-82
2020/12/25 08:34:02;;;;;;;8.30;5.20;;;;;;;;;;5062677;28;20129;-82
2020/12/25 08:36:28;;;;;;;10.75;5.25;;;;;;;;;;5060331;28;20104;-82
2020/12/25 08:38:54;;;;;;;11.88;5.18;;;;;;;;;;5066428;28;20048;-82
2020/12/25 08:41:25;;;;;;;10.20;5.45;;;;;;;;;;5065263;28;20021;-82
2020/12/25 08:43:51;;;;;;;8.75;5.38;;;;;;;;;;5058578;28;20035;-81
2020/12/25 08:46:21;;;;;;;9.55;4.97;;;;;;;;;;5067454;28;20025;-81
2020/12/25 08:48:51;;;;;;;8.90;4.82;;;;;;;;;;5053186;28;20032;-81
2020/12/25 08:51:18;;;;;;;10.40;5.10;;;;;;;;;;5056054;28;20074;-81
2020/12/25 08:53:51;;;;;;;7.05;3.88;;;;;;;;;;5055784;28;20060;-81
2020/12/25 08:56:18;;;;;;;7.78;4.63;;;;;;;;;;5054188;28;20036;-81
2020/12/25 08:58:57;;;;;;;8.55;4.63;;;;;;;;;;5056355;28;20033;-81
2020/12/25 09:01:23;;;;;;;9.25;4.78;;;;;;;;;;5051205;28;20034;-81
2020/12/25 09:03:49;;;;;;;8.00;5.18;;;;;;;;;;5058988;28;20016;-81
2020/12/25 09:06:15;;;;;;;9.50;5.38;;;;;;;;;;5063282;28;20363;-81
2020/12/25 09:08:41;;;;;;;8.73;4.82;;;;;;;;;;5053423;28;20023;-81
2020/12/25 09:11:07;;;;;;;8.02;4.80;;;;;;;;;;5052790;28;20021;-81
2020/12/25 09:13:34;;;;;;;7.72;5.00;;;;;;;;;;5040199;28;20029;-81
2020/12/25 09:16:00;;;;;;;9.27;4.47;;;;;;;;;;5044885;28;20033;-81
2020/12/25 09:18:26;;;;;;;9.60;4.28;;;;;;;;;;5039725;28;20059;-81
2020/12/25 09:20:51;;;;;;;9.45;4.20;;;;;;;;;;5043054;28;20132;-82
2020/12/25 09:23:17;;;;;;;8.32;4.35;;;;;;;;;;5047681;28;20103;-81
2020/12/25 09:25:43;;;;;;;8.55;5.05;;;;;;;;;;5044301;28;20021;-81
2020/12/25 09:28:09;;;;;;;6.82;4.90;;;;;;;;;;5038904;28;20022;-81
2020/12/25 09:30:35;;;;;;;10.55;4.82;;;;;;;;;;5044972;28;20024;-81
2020/12/25 09:33:01;;;;;;;6.78;4.07;;;;;;;;;;5042196;28;20032;-81
2020/12/25 09:35:27;;;;;;;7.10;3.75;;;;;;;;;;5039340;28;20145;-81
2020/12/25 09:37:53;;;;;;;9.52;4.90;;;;;;;;;;5042106;28;20032;-81
2020/12/25 09:40:19;;;;;;;9.02;4.13;;;;;;;;;;5040721;28;20029;-81
2020/12/25 09:42:45;;;;;;;9.98;5.93;;;;;;;;;;5044557;28;20071;-81
2020/12/25 09:45:11;;;;;;;6.90;4.10;;;;;;;;;;5042805;28;20018;-81
2020/12/25 09:47:37;;;;;;;10.13;5.22;;;;;;;;;;5038593;28;20105;-81
2020/12/25 09:50:03;;;;;;;7.15;4.32;;;;;;;;;;5045253;28;20064;-81
2020/12/25 09:52:29;;;;;;;6.43;3.95;;;;;;;;;;5044879;28;20118;-81
2020/12/25 09:54:55;;;;;;;10.40;3.90;;;;;;;;;;5044642;28;20102;-81
2020/12/25 09:57:21;;;;;;;8.63;4.40;;;;;;;;;;5051347;28;20033;-81
2020/12/25 09:59:47;;;;;;;6.47;3.72;;;;;;;;;;5040641;28;20041;-81
2020/12/25 10:02:13;;;;;;;11.13;5.55;;;;;;;;;;5039669;28;20082;-81
2020/12/25 10:04:39;;;;;;;11.18;6.78;;;;;;;;;;5043140;28;20032;-81
2020/12/25 10:07:05;;;;;;;6.90;4.80;;;;;;;;;;5041384;28;20036;-81
2020/12/25 10:09:31;;;;;;;9.95;5.72;;;;;;;;;;5047128;28;20084;-82
2020/12/25 10:11:56;;;;;;;11.75;6.60;;;;;;;;;;5045818;28;20028;-81
2020/12/25 10:14:22;;;;;;;13.77;9.40;;;;;;;;;;5043627;28;20028;-81
2020/12/25 10:16:49;;;;;;;7.13;5.20;;;;;;;;;;5039118;28;20057;-81
2020/12/25 10:19:15;;;;;;;7.70;5.13;;;;;;;;;;5038380;28;20021;-81
2020/12/25 10:21:41;;;;;;;8.63;4.07;;;;;;;;;;5037812;28;20021;-81
2020/12/25 10:24:07;;;;;;;7.10;4.55;;;;;;;;;;5039820;28;20488;-81
2020/12/25 10:26:33;;;;;;;6.78;4.32;;;;;;;;;;5043755;28;20021;-81
2020/12/25 10:28:59;;;;;;;6.47;3.80;;;;;;;;;;5034580;28;20025;-81
2020/12/25 10:31:25;;;;;;;5.70;4.10;;;;;;;;;;5038939;28;20052;-80
2020/12/25 10:33:51;;;;;;;5.65;3.03;;;;;;;;;;5030176;28;20021;-81
2020/12/25 10:36:17;;;;;;;6.85;3.25;;;;;;;;;;5033917;28;20025;-81
2020/12/25 10:38:42;;;;;;;7.40;3.75;;;;;;;;;;5051081;28;20029;-81
2020/12/25 10:41:09;;;;;;;5.78;2.70;;;;;;;;;;5042814;28;20085;-81
2020/12/25 10:43:35;;;;;;;9.85;3.85;;;;;;;;;;5050671;28;20079;-81
2020/12/25 10:46:01;;;;;;;6.55;3.33;;;;;;;;;;5041882;28;20777;-81
2020/12/25 10:50:46;;;;;;;4.88;2.47;;;;;;;;;;5124427;27;20354;-81
2020/12/25 10:53:12;;;;;;;5.97;3.17;;;;;;;;;;5119426;28;20073;-81
2020/12/25 10:55:38;;;;;;;4.78;3.03;;;;;;;;;;5121798;28;20080;-81
2020/12/25 10:58:04;;;;;;;4.70;2.40;;;;;;;;;;5113765;28;20023;-81
2020/12/25 11:00:30;;;;;;;6.32;2.78;;;;;;;;;;5124256;28;20020;-81
2020/12/25 11:02:56;;;;;;;6.10;2.85;;;;;;;;;;5114535;28;20636;-81
2020/12/25 11:05:22;;;;;;;3.90;2.00;;;;;;;;;;5113610;28;20024;-81
2020/12/25 11:07:48;;;;;;;5.78;2.95;;;;;;;;;;5112993;28;20034;-81
2020/12/25 11:10:14;;;;;;;4.00;2.58;;;;;;;;;;5116685;28;20024;-81
2020/12/25 11:12:40;;;;;;;5.18;2.33;;;;;;;;;;5119867;28;20096;-81
2020/12/25 11:15:06;;;;;;;5.00;2.35;;;;;;;;;;5102655;28;20066;-80
2020/12/25 11:17:32;;;;;;;5.78;2.38;;;;;;;;;;5110580;28;20077;-80
2020/12/25 11:19:58;;;;;;;11.05;4.15;;;;;;;;;;5111321;28;20069;-81
2020/12/25 11:22:24;;;;;;;6.65;2.97;;;;;;;;;;5119679;28;20050;-81
2020/12/25 11:24:49;;;;;;;5.47;3.03;;;;;;;;;;5117839;28;20030;-81
2020/12/25 11:27:15;;;;;;;10.52;2.83;;;;;;;;;;5123152;28;20501;-81
2020/12/25 11:29:41;;;;;;;4.05;2.65;;;;;;;;;;5114667;28;20036;-81
2020/12/25 11:32:07;;;;;;;6.03;2.70;;;;;;;;;;5115448;28;20511;-81
2020/12/25 11:34:33;;;;;;;3.67;1.77;;;;;;;;;;5116740;28;20051;-81
2020/12/25 11:36:59;;;;;;;4.47;2.15;;;;;;;;;;5116362;28;20119;-81
2020/12/25 11:39:25;;;;;;;4.78;1.90;;;;;;;;;;5117824;28;20024;-81
2020/12/25 11:41:51;;;;;;;5.00;2.03;;;;;;;;;;5116347;28;20050;-81
2020/12/25 11:44:17;;;;;;;4.60;2.40;;;;;;;;;;5121542;28;20476;-81
2020/12/25 11:46:43;;;;;;;3.13;1.42;;;;;;;;;;5113552;28;20501;-81
2020/12/25 11:49:09;;;;;;;5.95;3.03;;;;;;;;;;5124160;28;20055;-81
2020/12/25 11:51:35;;;;;;;4.47;2.20;;;;;;;;;;5123765;28;20021;-81
2020/12/25 11:54:01;;;;;;;3.40;1.77;;;;;;;;;;5133392;28;20061;-81
2020/12/25 11:56:29;;;;;;;4.95;1.85;;;;;;;;;;5133111;28;20028;-81
2020/12/25 11:58:56;;;;;;;4.30;2.05;;;;;;;;;;5116141;28;20023;-81
2020/12/25 12:01:22;;;;;;;5.28;1.63;;;;;;;;;;5113897;28;20039;-80
2020/12/25 12:03:48;;;;;;;6.25;2.33;;;;;;;;;;5103214;28;20051;-81
2020/12/25 12:06:24;;;;;;;2.83;1.50;;;;;;;;;;5096862;28;20028;-81
2020/12/25 12:08:50;;;;;;;3.10;1.67;;;;;;;;;;5100636;28;20085;-81
2020/12/25 12:11:16;;;;;;;4.07;1.58;;;;;;;;;;5108509;28;20087;-81
2020/12/25 12:13:42;;;;;;;3.17;1.60;;;;;;;;;;5095939;28;20028;-80
2020/12/25 12:16:14;;;;;;;4.57;2.00;;;;;;;;;;5111248;28;20035;-80
2020/12/25 12:18:41;;;;;;;4.72;2.30;;;;;;;;;;5099031;28;20060;-79
2020/12/25 12:21:08;;;;;;;3.42;1.50;;;;;;;;;;5105264;28;20515;-81
2020/12/25 12:23:34;;;;;;;3.53;1.55;;;;;;;;;;5103572;28;20020;-81
2020/12/25 12:26:00;;;;;;;3.03;1.50;;;;;;;;;;5100329;28;20030;-81
2020/12/25 12:28:26;;;;;;;3.97;1.90;;;;;;;;;;5108841;28;20131;-81
2020/12/25 12:30:52;;;;;;;9.30;3.28;;;;;;;;;;5101834;28;20459;-80
2020/12/25 12:33:18;;;;;;;4.13;1.90;;;;;;;;;;5104084;28;20023;-81
2020/12/25 12:35:44;;;;;;;3.30;1.70;;;;;;;;;;5103494;28;20024;-81
2020/12/25 12:38:10;;;;;;;5.30;1.70;;;;;;;;;;5106512;28;20048;-81
2020/12/25 12:40:36;;;;;;;3.53;1.60;;;;;;;;;;5108097;28;20051;-81
2020/12/25 12:43:02;;;;;;;2.90;1.70;;;;;;;;;;5112609;28;20118;-81
2020/12/25 12:45:28;;;;;;;5.50;1.70;;;;;;;;;;5105712;28;20100;-81
2020/12/25 12:47:53;;;;;;;4.05;1.75;;;;;;;;;;5093748;28;20025;-80
2020/12/25 12:50:19;;;;;;;7.35;2.38;;;;;;;;;;5101914;28;20151;-81
2020/12/25 12:52:45;;;;;;;4.82;1.58;;;;;;;;;;5106875;28;20113;-80
2020/12/25 12:55:11;;;;;;;10.73;2.50;;;;;;;;;;5085461;28;20024;-81
2020/12/25 12:57:37;;;;;;;5.90;2.13;;;;;;;;;;5105681;28;20028;-80
2020/12/25 13:00:04;;;;;;;3.78;1.80;;;;;;;;;;5107261;28;20016;-80
2020/12/25 13:02:30;;;;;;;3.92;1.75;;;;;;;;;;5102414;28;20607;-80
2020/12/25 13:04:55;;;;;;;4.55;1.90;;;;;;;;;;5091421;28;20103;-80
2020/12/25 13:07:21;;;;;;;3.97;1.60;;;;;;;;;;5091393;28;20066;-81
2020/12/25 13:09:47;;;;;;;6.22;2.47;;;;;;;;;;5103064;28;20122;-80
2020/12/25 13:12:13;;;;;;;9.55;4.97;;;;;;;;;;5100037;28;20428;-80
2020/12/25 13:14:39;;;;;;;5.25;2.80;;;;;;;;;;5099252;28;20132;-80
2020/12/25 13:17:06;;;;;;;4.15;1.80;;;;;;;;;;5104864;28;20540;-80
2020/12/25 13:19:32;;;;;;;4.60;1.85;;;;;;;;;;5095544;28;20077;-81
2020/12/25 13:21:58;;;;;;;3.38;1.50;;;;;;;;;;5107123;28;20024;-80
2020/12/25 13:24:26;;;;;;;3.45;1.60;;;;;;;;;;5092082;28;20020;-80
2020/12/25 13:26:52;;;;;;;4.75;1.83;;;;;;;;;;5109475;28;20530;-80
2020/12/25 13:29:18;;;;;;;4.95;2.55;;;;;;;;;;5097774;28;20028;-80
2020/12/25 13:31:44;;;;;;;6.75;2.05;;;;;;;;;;5103038;28;20017;-80
2020/12/25 13:34:10;;;;;;;3.67;2.30;;;;;;;;;;5087372;28;20039;-81
2020/12/25 13:36:36;;;;;;;3.95;1.70;;;;;;;;;;5089969;28;20043;-80
2020/12/25 13:39:02;;;;;;;3.70;1.90;;;;;;;;;;5097521;28;20027;-80
2020/12/25 13:41:28;;;;;;;3.95;1.70;;;;;;;;;;5086046;28;20032;-80
2020/12/25 13:43:54;;;;;;;4.05;1.90;;;;;;;;;;5091976;28;20031;-79
2020/12/25 13:46:20;;;;;;;6.47;2.33;;;;;;;;;;5096805;28;20093;-79
2020/12/25 13:48:47;;;;;;;3.60;1.80;;;;;;;;;;5090560;28;20130;-79
2020/12/25 13:51:20;;;;;;;4.97;1.70;;;;;;;;;;5089991;28;20111;-79
2020/12/25 13:53:46;;;;;;;4.35;1.42;;;;;;;;;;5099414;28;20024;-79
2020/12/25 13:56:13;;;;;;;6.55;1.98;;;;;;;;;;5091847;28;20031;-80
2020/12/25 13:58:39;;;;;;;7.85;2.40;;;;;;;;;;5094010;28;20028;-79
2020/12/25 14:01:06;;;;;;;8.43;2.78;;;;;;;;;;5097174;28;20379;-79
2020/12/25 14:05:49;;;;;;;6.10;2.25;;;;;;;;;;5117959;27;20756;-79
2020/12/25 14:08:15;;;;;;;4.10;1.92;;;;;;;;;;5088555;28;20032;-80
2020/12/25 14:10:41;;;;;;;3.78;1.83;;;;;;;;;;5092465;28;20044;-81
2020/12/25 14:13:07;;;;;;;4.97;1.63;;;;;;;;;;5092130;28;20028;-81
2020/12/25 14:15:33;;;;;;;4.28;1.63;;;;;;;;;;5086747;28;20053;-79
2020/12/25 14:17:59;;;;;;;3.80;1.85;;;;;;;;;;5095221;28;20028;-79
2020/12/25 14:22:43;;;;;;;5.05;2.00;;;;;;;;;;5083151;28;20961;-78
2020/12/25 14:25:09;;;;;;;5.32;1.63;;;;;;;;;;5072448;28;20029;-78
2020/12/25 14:27:35;;;;;;;5.32;2.38;;;;;;;;;;5064437;28;20694;-78
2020/12/25 14:30:01;;;;;;;6.00;1.77;;;;;;;;;;5072090;28;20048;-78
2020/12/25 14:32:27;;;;;;;4.70;2.22;;;;;;;;;;5061707;28;20439;-78
2020/12/25 14:34:54;;;;;;;5.03;1.80;;;;;;;;;;5070118;28;20564;-78
2020/12/25 14:37:20;;;;;;;3.35;1.70;;;;;;;;;;5062029;28;20056;-78
2020/12/25 14:39:46;;;;;;;5.80;2.08;;;;;;;;;;5071830;28;20599;-79
2020/12/25 14:42:12;;;;;;;3.85;1.33;;;;;;;;;;5066874;28;20469;-79
2020/12/25 14:44:38;;;;;;;3.72;1.50;;;;;;;;;;5066739;28;20032;-81
2020/12/25 14:47:04;;;;;;;5.78;1.90;;;;;;;;;;5070643;28;20029;-78
2020/12/25 14:49:30;;;;;;;5.15;1.52;;;;;;;;;;5068721;28;20021;-78
2020/12/25 14:51:56;;;;;;;5.47;1.40;;;;;;;;;;5064496;28;20052;-79
2020/12/25 14:54:23;;;;;;;4.43;1.27;;;;;;;;;;5068767;28;20029;-79
2020/12/25 14:56:49;;;;;;;8.65;1.88;;;;;;;;;;5067080;28;20059;-80
2020/12/25 14:59:15;;;;;;;4.05;1.60;;;;;;;;;;5070337;28;20021;-80
2020/12/25 15:01:41;;;;;;;3.72;1.83;;;;;;;;;;5069242;28;20389;-79
2020/12/25 15:04:07;;;;;;;14.25;7.72;;;;;;;;;;5066853;28;20452;-80
2020/12/25 15:06:33;;;;;;;5.70;3.08;;;;;;;;;;5066962;28;20047;-80
2020/12/25 15:08:59;;;;;;;4.75;1.80;;;;;;;;;;5071080;28;20020;-80
2020/12/25 15:11:26;;;;;;;5.60;2.00;;;;;;;;;;5069640;28;20049;-80
2020/12/25 15:13:52;;;;;;;5.65;2.03;;;;;;;;;;5070335;28;20028;-79
2020/12/25 15:16:19;;;;;;;20.40;6.28;;;;;;;;;;5067955;28;20119;-80
2020/12/25 15:18:46;;;;;;;4.45;2.28;;;;;;;;;;5070924;28;20080;-80
2020/12/25 15:21:12;;;;;;;7.22;2.20;;;;;;;;;;5071044;28;20025;-81
2020/12/25 15:25:57;;;;;;;7.35;2.08;;;;;;;;;;5089812;27;20365;-81
2020/12/25 15:28:23;;;;;;;6.50;3.42;;;;;;;;;;5093689;28;20472;-81
2020/12/25 15:30:49;;;;;;;5.82;2.72;;;;;;;;;;5087510;28;20131;-81
2020/12/25 15:33:15;;;;;;;12.68;4.15;;;;;;;;;;5092305;28;20021;-81
2020/12/25 15:35:41;;;;;;;8.23;3.35;;;;;;;;;;5098326;28;20026;-81
2020/12/25 15:38:06;;;;;;;18.15;5.15;;;;;;;;;;5082194;28;20033;-81
2020/12/25 15:40:33;;;;;;;23.33;7.05;;;;;;;;;;5091468;28;20028;-81
2020/12/25 15:42:59;;;;;;;67.05;22.05;;;;;;;;;;5095502;28;20058;-81
2020/12/25 15:45:24;;;;;;;57.08;18.35;;;;;;;;;;5092782;28;20025;-81
2020/12/25 15:47:50;;;;;;;43.92;19.30;;;;;;;;;;5087862;28;20067;-81
2020/12/25 15:50:17;;;;;;;35.53;13.27;;;;;;;;;;5091095;28;20031;-81
2020/12/25 15:52:43;;;;;;;27.90;9.48;;;;;;;;;;5092317;28;20062;-81
2020/12/25 15:55:09;;;;;;;26.52;10.05;;;;;;;;;;5087803;28;20032;-83
2020/12/25 15:57:35;;;;;;;16.77;6.72;;;;;;;;;;5079094;28;20542;-82
2020/12/25 16:02:18;;;;;;;19.15;8.60;;;;;;;;;;5081258;28;20356;-82
2020/12/25 16:04:44;;;;;;;14.10;6.05;;;;;;;;;;5078050;28;21447;-82
2020/12/25 16:07:10;;;;;;;19.70;5.63;;;;;;;;;;5072676;28;20024;-82
2020/12/25 16:09:36;;;;;;;19.63;7.20;;;;;;;;;;5070233;28;20025;-82
2020/12/25 16:12:02;;;;;;;12.75;4.55;;;;;;;;;;5075608;28;20130;-82
2020/12/25 16:14:30;;;;;;;11.05;3.80;;;;;;;;;;5073218;28;20021;-81
2020/12/25 16:16:56;;;;;;;13.05;2.63;;;;;;;;;;5069064;28;20024;-82
2020/12/25 16:19:22;;;;;;;5.45;1.98;;;;;;;;;;5071696;28;20035;-83
2020/12/25 16:21:48;;;;;;;5.05;1.83;;;;;;;;;;5054106;28;20025;-82
2020/12/25 16:24:14;;;;;;;56.90;14.35;;;;;;;;;;5077240;28;20020;-82
2020/12/25 16:26:41;;;;;;;15.52;4.50;;;;;;;;;;5060350;28;20017;-82
2020/12/25 16:29:10;;;;;;;26.38;10.77;;;;;;;;;;5076426;28;20032;-82
2020/12/25 16:31:36;;;;;;;19.63;6.40;;;;;;;;;;5078155;28;20037;-82
2020/12/25 16:34:02;;;;;;;24.85;7.78;;;;;;;;;;5057535;28;20101;-82
2020/12/25 16:38:46;;;;;;;8.48;2.70;;;;;;;;;;5090102;27;20957;-82
2020/12/25 16:41:13;;;;;;;17.15;5.18;;;;;;;;;;5089807;28;20036;-82
2020/12/25 16:43:39;;;;;;;17.02;6.65;;;;;;;;;;5089589;28;20032;-82
2020/12/25 16:46:06;;;;;;;19.50;5.47;;;;;;;;;;5089435;28;20054;-82
2020/12/25 16:50:50;;;;;;;10.07;3.72;;;;;;;;;;5102490;27;20772;-83
2020/12/25 16:53:16;;;;;;;6.60;2.28;;;;;;;;;;5088202;28;20082;-81
2020/12/25 16:55:42;;;;;;;6.95;2.10;;;;;;;;;;5091554;28;20035;-82
2020/12/25 16:58:08;;;;;;;3.38;1.60;;;;;;;;;;5089153;28;20388;-82
2020/12/25 17:00:34;;;;;;;24.23;7.60;;;;;;;;;;5082416;28;20479;-82
2020/12/25 17:03:00;;;;;;;13.60;5.60;;;;;;;;;;5080243;28;20020;-82
2020/12/25 17:05:26;;;;;;;36.33;13.88;;;;;;;;;;5095672;28;20035;-82
2020/12/25 17:07:52;;;;;;;13.48;5.10;;;;;;;;;;5088916;28;20031;-82
2020/12/25 17:10:18;;;;;;;6.45;2.47;;;;;;;;;;5084972;28;20020;-82
2020/12/25 17:12:44;;;;;;;5.28;2.47;;;;;;;;;;5084562;28;20402;-82
2020/12/25 17:15:10;;;;;;;6.05;1.73;;;;;;;;;;5082140;28;20077;-82
2020/12/25 17:17:36;;;;;;;4.40;1.20;;;;;;;;;;5092319;28;20442;-82
2020/12/25 17:20:02;;;;;;;7.43;3.78;;;;;;;;;;5084976;28;20036;-82
2020/12/25 17:22:28;;;;;;;11.70;4.78;;;;;;;;;;5066505;28;20025;-82
2020/12/25 17:24:53;;;;;;;6.72;3.20;;;;;;;;;;5083927;28;20035;-81
2020/12/25 17:27:22;;;;;;;10.38;3.30;;;;;;;;;;5071499;28;20087;-82
2020/12/25 17:29:49;;;;;;;6.93;2.78;;;;;;;;;;5093531;28;20035;-80
2020/12/25 17:32:14;;;;;;;10.90;4.30;;;;;;;;;;5106283;28;20016;-80
2020/12/25 17:34:41;;;;;;;35.03;12.38;;;;;;;;;;5104336;28;20032;-79
2020/12/25 17:37:07;;;;;;;11.40;5.22;;;;;;;;;;5095719;28;20028;-81
2020/12/25 17:39:32;;;;;;;7.43;3.33;;;;;;;;;;5084220;28;20036;-81
2020/12/25 17:41:58;;;;;;;5.40;2.50;;;;;;;;;;5075101;28;20024;-81
2020/12/25 17:44:24;;;;;;;6.95;1.90;;;;;;;;;;5083293;28;20021;-81
2020/12/25 17:46:50;;;;;;;4.97;1.70;;;;;;;;;;5087158;28;20135;-80
2020/12/25 17:49:16;;;;;;;5.05;1.40;;;;;;;;;;5106252;28;20092;-79
2020/12/25 17:51:42;;;;;;;2.78;1.23;;;;;;;;;;5106546;28;20024;-80
2020/12/25 17:54:09;;;;;;;3.97;1.35;;;;;;;;;;5100733;28;20024;-80
2020/12/25 17:56:34;;;;;;;3.13;1.40;;;;;;;;;;5093172;28;20035;-80
2020/12/25 17:59:03;;;;;;;4.55;1.50;;;;;;;;;;5096830;28;20475;-81
2020/12/25 18:01:32;;;;;;;5.85;3.03;;;;;;;;;;5075266;28;20032;-81
2020/12/25 18:03:59;;;;;;;2.72;1.30;;;;;;;;;;5078452;28;20036;-82
2020/12/25 18:06:25;;;;;;;3.20;1.40;;;;;;;;;;5072857;28;20041;-82
2020/12/25 18:08:51;;;;;;;3.60;1.40;;;;;;;;;;5079555;28;20042;-82
2020/12/25 18:11:17;;;;;;;7.32;2.03;;;;;;;;;;5076775;28;20076;-82
2020/12/25 18:13:47;;;;;;;5.70;1.85;;;;;;;;;;5075888;28;20028;-82
2020/12/25 18:16:13;;;;;;;7.25;2.85;;;;;;;;;;5077371;28;20054;-82
2020/12/25 18:18:39;;;;;;;9.60;2.80;;;;;;;;;;5075694;28;20646;-82
2020/12/25 18:21:05;;;;;;;8.77;3.70;;;;;;;;;;5056907;28;20074;-82
2020/12/25 18:23:31;;;;;;;10.50;4.80;;;;;;;;;;5059017;28;20044;-82
2020/12/25 18:25:57;;;;;;;9.80;4.45;;;;;;;;;;5060748;28;20024;-81
2020/12/25 18:28:23;;;;;;;19.70;7.95;;;;;;;;;;5068724;28;20037;-82
2020/12/25 18:30:49;;;;;;;15.23;6.90;;;;;;;;;;5071782;28;20115;-82
2020/12/25 18:33:15;;;;;;;11.82;7.00;;;;;;;;;;5078478;28;20097;-82
2020/12/25 18:35:41;;;;;;;16.23;7.63;;;;;;;;;;5070666;28;20401;-82
2020/12/25 18:38:08;;;;;;;12.02;6.38;;;;;;;;;;5068378;28;20021;-82
2020/12/25 18:40:34;;;;;;;10.23;5.28;;;;;;;;;;5070479;28;20044;-82
2020/12/25 18:43:00;;;;;;;11.40;5.90;;;;;;;;;;5074767;28;20393;-82
2020/12/25 18:45:26;;;;;;;10.60;4.68;;;;;;;;;;5080780;28;20396;-81
2020/12/25 18:47:52;;;;;;;7.00;4.20;;;;;;;;;;5077826;28;20106;-82
2020/12/25 18:50:18;;;;;;;8.40;3.67;;;;;;;;;;5067553;28;20029;-82
2020/12/25 18:52:44;;;;;;;6.68;3.53;;;;;;;;;;5055207;28;20103;-82
2020/12/25 18:55:12;;;;;;;5.80;2.65;;;;;;;;;;5069843;28;20032;-82
2020/12/25 18:57:38;;;;;;;21.52;5.45;;;;;;;;;;5071910;28;20016;-82
2020/12/25 19:00:08;;;;;;;14.73;4.57;;;;;;;;;;5071273;28;20104;-82
2020/12/25 19:02:34;;;;;;;12.68;3.97;;;;;;;;;;5067455;28;20035;-82
2020/12/25 19:05:00;;;;;;;6.47;2.45;;;;;;;;;;5069023;28;20029;-82
2020/12/25 19:07:25;;;;;;;5.80;2.10;;;;;;;;;;5065412;28;20419;-82
2020/12/25 19:09:51;;;;;;;8.95;2.90;;;;;;;;;;5067214;28;20028;-82
2020/12/25 19:12:17;;;;;;;6.65;2.28;;;;;;;;;;5067579;28;20017;-82
2020/12/25 19:14:43;;;;;;;7.40;2.17;;;;;;;;;;5070956;28;20030;-82
2020/12/25 19:17:09;;;;;;;10.00;3.10;;;;;;;;;;5066553;28;20112;-82
2020/12/25 19:19:39;;;;;;;17.60;6.75;;;;;;;;;;5073725;28;20028;-82
2020/12/25 19:22:05;;;;;;;12.23;4.40;;;;;;;;;;5053699;28;20392;-82
2020/12/25 19:24:30;;;;;;;9.15;4.18;;;;;;;;;;5067425;28;20093;-82
2020/12/25 19:26:57;;;;;;;9.18;4.05;;;;;;;;;;5075670;28;20074;-82
2020/12/25 19:29:23;;;;;;;18.63;5.15;;;;;;;;;;5060467;28;20024;-82
2020/12/25 19:31:50;;;;;;;8.50;3.55;;;;;;;;;;5079157;28;20028;-82
2020/12/25 19:34:16;;;;;;;10.68;4.70;;;;;;;;;;5076953;28;20021;-82
2020/12/25 19:36:47;;;;;;;8.75;3.33;;;;;;;;;;5053979;28;20123;-82
2020/12/25 19:39:13;;;;;;;8.75;3.20;;;;;;;;;;5070625;28;20029;-82
2020/12/25 19:41:38;;;;;;;7.53;2.28;;;;;;;;;;5049639;28;20025;-82
2020/12/25 19:44:04;;;;;;;5.18;2.50;;;;;;;;;;5055701;28;20085;-82
2020/12/25 19:46:30;;;;;;;8.43;2.20;;;;;;;;;;5071688;28;20658;-82
2020/12/25 19:48:56;;;;;;;3.20;1.85;;;;;;;;;;5063472;28;20028;-82
2020/12/25 19:53:40;;;;;;;6.22;2.10;;;;;;;;;;5054141;28;20366;-82
2020/12/25 19:56:06;;;;;;;6.88;2.15;;;;;;;;;;5053025;28;20079;-81
2020/12/25 19:58:32;;;;;;;6.55;2.13;;;;;;;;;;5055375;28;20537;-82
2020/12/25 20:03:17;;;;;;;25.73;10.48;;;;;;;;;;5067786;28;20765;-81
2020/12/25 20:05:47;;;;;;;19.10;7.65;;;;;;;;;;5065621;28;20036;-80
2020/12/25 20:08:13;;;;;;;20.38;7.28;;;;;;;;;;5064591;28;20365;-80
2020/12/25 20:10:39;;;;;;;15.35;5.22;;;;;;;;;;5063819;28;20029;-80
2020/12/25 20:13:05;;;;;;;11.32;4.38;;;;;;;;;;5061453;28;20095;-80
2020/12/25 20:15:31;;;;;;;6.05;3.08;;;;;;;;;;5041285;28;20125;-80
2020/12/25 20:17:57;;;;;;;7.65;2.72;;;;;;;;;;5043585;28;20120;-80
2020/12/25 20:20:28;;;;;;;5.70;2.38;;;;;;;;;;5065674;28;20568;-80
2020/12/25 20:22:54;;;;;;;7.88;2.88;;;;;;;;;;5054774;28;20489;-80
2020/12/25 20:25:20;;;;;;;6.38;2.40;;;;;;;;;;5057780;28;20083;-81
2020/12/25 20:27:47;;;;;;;6.28;2.17;;;;;;;;;;5064909;28;20105;-81
2020/12/25 20:30:13;;;;;;;4.93;2.15;;;;;;;;;;5057810;28;20485;-82
2020/12/25 20:32:39;;;;;;;5.45;2.45;;;;;;;;;;5061483;28;20078;-82
2020/12/25 20:35:05;;;;;;;6.03;2.33;;;;;;;;;;5059613;28;20025;-81
2020/12/25 20:37:31;;;;;;;4.90;2.42;;;;;;;;;;5046928;28;20396;-80
2020/12/25 20:42:15;;;;;;;5.05;2.28;;;;;;;;;;5081082;28;20383;-80
2020/12/25 20:44:41;;;;;;;4.95;2.20;;;;;;;;;;5061531;28;20029;-81
2020/12/25 20:47:08;;;;;;;7.07;3.15;;;;;;;;;;5058100;28;20107;-80
2020/12/25 20:49:34;;;;;;;4.35;2.60;;;;;;;;;;5053402;28;20025;-80
2020/12/25 20:52:00;;;;;;;16.52;3.55;;;;;;;;;;5058396;28;20563;-81
2020/12/25 20:54:26;;;;;;;6.38;3.08;;;;;;;;;;5039112;28;20017;-81
2020/12/25 20:56:52;;;;;;;4.38;2.38;;;;;;;;;;5056712;28;20024;-81